createdAt,value
2018-11-06T00:00:32.571Z,99736.46
2018-11-06T00:03:06.187Z,99732.22
2018-11-06T00:05:34.627Z,99728.97
2018-11-06T00:08:03.021Z,99730.62
2018-11-06T00:10:31.450Z,99729.33
2018-11-06T00:12:59.878Z,99731.34
2018-11-06T00:15:28.848Z,99722.89
2018-11-06T00:17:57.966Z,99720.35
2018-11-06T00:20:26.417Z,99722.14
2018-11-06T00:22:54.789Z,99717.89
2018-11-06T00:25:24.159Z,99717.94
2018-11-06T00:27:52.615Z,99720.05
2018-11-06T00:30:21.035Z,99713.77
2018-11-06T00:32:49.648Z,99712.05
2018-11-06T00:35:18.051Z,99713.33
2018-11-06T00:37:46.454Z,99717.22
2018-11-06T00:40:14.951Z,99716.11
2018-11-06T00:42:44.116Z,99723.02
2018-11-06T00:45:14.757Z,99732.04
2018-11-06T00:47:43.585Z,99727.20
2018-11-06T00:50:12.729Z,99729.72
2018-11-06T00:52:42.281Z,99731.38
2018-11-06T00:55:11.339Z,99740.28
2018-11-06T00:57:41.465Z,99738.58
2018-11-06T01:00:14.145Z,99735.63
2018-11-06T01:02:42.867Z,99740.30
2018-11-06T01:05:12.174Z,99747.65
2018-11-06T01:07:40.918Z,99742.13
2018-11-06T01:10:10.304Z,99737.42
2018-11-06T01:12:38.940Z,99734.43
2018-11-06T01:15:08.773Z,99738.64
2018-11-06T01:17:37.218Z,99739.45
2018-11-06T01:20:07.833Z,99736.91
2018-11-06T01:22:36.610Z,99734.37
2018-11-06T01:25:06.433Z,99737.80
2018-11-06T01:27:34.876Z,99736.97
2018-11-06T01:30:03.460Z,99733.63
2018-11-06T01:32:31.982Z,99734.50
2018-11-06T01:35:00.426Z,99728.54
2018-11-06T01:37:28.863Z,99731.08
2018-11-06T01:39:57.308Z,99727.27
2018-11-06T01:42:25.722Z,99727.71
2018-11-06T01:44:54.235Z,99720.53
2018-11-06T01:47:23.566Z,99721.79
2018-11-06T01:49:51.992Z,99721.80
2018-11-06T01:52:21.125Z,99720.98
2018-11-06T01:54:49.641Z,99727.31
2018-11-06T01:57:18.136Z,99726.06
2018-11-06T01:59:46.578Z,99725.28
2018-11-06T02:02:15.035Z,99721.86
2018-11-06T02:04:43.487Z,99716.34
2018-11-06T02:07:12.028Z,99719.33
2018-11-06T02:09:40.519Z,99715.12
2018-11-06T02:12:08.982Z,99716.45
2018-11-06T02:14:37.547Z,99717.72
2018-11-06T02:17:06.045Z,99719.87
2018-11-06T02:19:34.513Z,99716.08
2018-11-06T02:22:02.930Z,99716.51
2018-11-06T02:24:31.411Z,99722.49
2018-11-06T02:26:59.785Z,99723.30
2018-11-06T02:29:28.298Z,99717.36
2018-11-06T02:31:57.719Z,99718.80
2018-11-06T02:34:26.169Z,99721.88
2018-11-06T02:36:55.041Z,99717.64
2018-11-06T02:39:23.429Z,99719.68
2018-11-06T02:41:51.904Z,99723.91
2018-11-06T02:44:20.396Z,99721.77
2018-11-06T02:46:48.936Z,99724.80
2018-11-06T02:49:18.035Z,99729.44
2018-11-06T02:51:46.719Z,99721.95
2018-11-06T02:54:15.273Z,99730.16
2018-11-06T02:56:43.645Z,99730.58
2018-11-06T02:59:12.857Z,99725.45
2018-11-06T03:01:41.364Z,99726.29
2018-11-06T03:04:09.725Z,99724.98
2018-11-06T03:06:38.250Z,99730.45
2018-11-06T03:09:07.517Z,99721.98
2018-11-06T03:11:36.010Z,99728.83
2018-11-06T03:14:04.995Z,99733.03
2018-11-06T03:16:33.515Z,99726.69
2018-11-06T03:19:01.948Z,99721.17
2018-11-06T03:21:30.911Z,99730.05
2018-11-06T03:23:59.350Z,99729.61
2018-11-06T03:26:28.619Z,99723.12
2018-11-06T03:28:57.351Z,99726.58
2018-11-06T03:31:25.891Z,99729.52
2018-11-06T03:33:55.343Z,99726.52
2018-11-06T03:36:24.862Z,99731.53
2018-11-06T03:38:53.308Z,99729.22
2018-11-06T03:41:21.830Z,99735.50
2018-11-06T03:43:51.244Z,99736.77
2018-11-06T03:46:19.676Z,99738.48
2018-11-06T03:48:48.127Z,99738.45
2018-11-06T03:51:16.600Z,99743.95
2018-11-06T03:53:45.102Z,99743.47
2018-11-06T03:56:13.566Z,99743.03
2018-11-06T03:58:42.004Z,99745.56
2018-11-06T04:01:10.485Z,99751.08
2018-11-06T04:03:38.897Z,99745.12
2018-11-06T04:06:07.362Z,99756.55
2018-11-06T04:08:35.782Z,99754.84
2018-11-06T04:11:04.191Z,99756.94
2018-11-06T04:13:32.534Z,99759.08
2018-11-06T04:16:01.003Z,99755.67
2018-11-06T04:18:29.427Z,99756.49
2018-11-06T04:20:57.835Z,99759.47
2018-11-06T04:23:26.757Z,99762.50
2018-11-06T04:25:55.207Z,99764.72
2018-11-06T04:28:23.684Z,99759.27
2018-11-06T04:30:52.042Z,99760.14
2018-11-06T04:33:20.592Z,99751.25
2018-11-06T04:35:48.959Z,99748.67
2018-11-06T04:38:17.381Z,99743.23
2018-11-06T04:40:45.763Z,99739.83
2018-11-06T04:43:14.189Z,99736.12
2018-11-06T04:45:42.604Z,99730.27
2018-11-06T04:48:11.034Z,99732.44
2018-11-06T04:50:39.499Z,99738.78
2018-11-06T04:53:07.928Z,99746.41
2018-11-06T04:55:36.410Z,99745.56
2018-11-06T04:58:04.824Z,99743.89
2018-11-06T05:00:33.270Z,99743.02
2018-11-06T05:03:01.691Z,99750.59
2018-11-06T05:05:30.171Z,99761.62
2018-11-06T05:07:59.404Z,99759.52
2018-11-06T05:10:28.513Z,99762.85
2018-11-06T05:12:56.952Z,99765.42
2018-11-06T05:15:25.424Z,99767.14
2018-11-06T05:17:53.856Z,99772.22
2018-11-06T05:20:22.258Z,99774.36
2018-11-06T05:22:50.630Z,99783.64
2018-11-06T05:25:19.092Z,99788.69
2018-11-06T05:27:48.794Z,99796.25
2018-11-06T05:30:17.753Z,99792.05
2018-11-06T05:32:46.565Z,99787.70
2018-11-06T05:35:15.210Z,99779.14
2018-11-06T05:37:44.852Z,99777.05
2018-11-06T05:40:24.451Z,99782.56
2018-11-06T05:42:52.973Z,99786.77
2018-11-06T05:45:21.498Z,99795.66
2018-11-06T05:47:49.975Z,99796.97
2018-11-06T05:50:18.441Z,99801.23
2018-11-06T05:52:47.323Z,99801.28
2018-11-06T05:55:15.726Z,99800.39
2018-11-06T05:57:44.226Z,99806.75
2018-11-06T06:00:12.637Z,99810.61
2018-11-06T06:02:41.071Z,99813.59
2018-11-06T06:05:09.579Z,99811.88
2018-11-06T06:07:38.041Z,99813.59
2018-11-06T06:10:07.002Z,99811.53
2018-11-06T06:12:36.786Z,99820.47
2018-11-06T06:15:06.109Z,99824.72
2018-11-06T06:17:34.507Z,99822.59
2018-11-06T06:20:15.890Z,99820.53
2018-11-06T06:22:44.421Z,99815.92
2018-11-06T06:25:12.784Z,99818.86
2018-11-06T06:27:43.385Z,99828.14
2018-11-06T06:30:14.468Z,99836.59
2018-11-06T06:32:43.221Z,99833.19
2018-11-06T06:35:12.348Z,99829.41
2018-11-06T06:37:48.007Z,99828.54
2018-11-06T06:40:17.315Z,99836.16
2018-11-06T06:42:47.428Z,99840.41
2018-11-06T06:45:19.124Z,99851.42
2018-11-06T06:47:47.586Z,99843.41
2018-11-06T06:50:17.384Z,99840.00
2018-11-06T06:52:46.515Z,99840.84
2018-11-06T06:55:15.898Z,99839.52
2018-11-06T06:57:45.426Z,99844.59
2018-11-06T07:00:18.746Z,99841.63
2018-11-06T07:02:47.254Z,99846.70
2018-11-06T07:05:20.011Z,99848.36
2018-11-06T07:07:48.467Z,99853.83
2018-11-06T07:10:18.381Z,99856.33
2018-11-06T07:12:47.769Z,99857.13
2018-11-06T07:15:17.360Z,99861.72
2018-11-06T07:17:46.786Z,99861.19
2018-11-06T07:20:17.457Z,99867.09
2018-11-06T07:22:45.990Z,99866.16
2018-11-06T07:25:14.873Z,99869.42
2018-11-06T07:27:44.400Z,99870.47
2018-11-06T07:30:15.257Z,99866.86
2018-11-06T07:32:44.349Z,99871.73
2018-11-06T07:35:13.704Z,99874.08
2018-11-06T07:37:42.441Z,99869.58
2018-11-06T07:40:12.210Z,99882.03
2018-11-06T07:42:40.850Z,99880.34
2018-11-06T07:45:16.573Z,99887.03
2018-11-06T07:47:45.023Z,99884.73
2018-11-06T07:50:14.284Z,99882.25
2018-11-06T07:52:42.870Z,99891.44
2018-11-06T07:55:13.899Z,99890.14
2018-11-06T07:57:42.627Z,99895.13
2018-11-06T08:00:17.612Z,99899.66
2018-11-06T08:02:47.047Z,99890.03
2018-11-06T08:05:16.129Z,99896.52
2018-11-06T08:07:45.378Z,99899.05
2018-11-06T08:10:14.260Z,99902.91
2018-11-06T08:12:44.956Z,99903.67
2018-11-06T08:15:13.827Z,99903.45
2018-11-06T08:17:43.580Z,99898.98
2018-11-06T08:20:12.110Z,99900.42
2018-11-06T08:22:40.578Z,99903.18
2018-11-06T08:25:10.637Z,99902.09
2018-11-06T08:27:40.033Z,99899.84
2018-11-06T08:30:09.364Z,99905.33
2018-11-06T08:32:38.177Z,99900.23
2018-11-06T08:35:08.651Z,99901.72
2018-11-06T08:37:37.202Z,99901.48
2018-11-06T08:40:06.621Z,99893.16
2018-11-06T08:42:35.137Z,99898.95
2018-11-06T08:45:03.749Z,99898.80
2018-11-06T08:47:32.225Z,99902.16
2018-11-06T08:50:00.728Z,99905.08
2018-11-06T08:52:29.218Z,99899.61
2018-11-06T08:54:57.779Z,99901.38
2018-11-06T08:57:26.253Z,99897.69
2018-11-06T08:59:54.826Z,99898.28
2018-11-06T09:02:23.293Z,99895.45
2018-11-06T09:04:51.807Z,99898.36
2018-11-06T09:07:20.418Z,99904.98
2018-11-06T09:09:48.929Z,99907.30
2018-11-06T09:12:17.342Z,99911.42
2018-11-06T09:14:46.063Z,99911.83
2018-11-06T09:17:14.716Z,99905.89
2018-11-06T09:19:43.164Z,99902.11
2018-11-06T09:22:11.623Z,99901.68
2018-11-06T09:24:40.119Z,99908.61
2018-11-06T09:27:08.679Z,99904.47
2018-11-06T09:29:37.212Z,99903.89
2018-11-06T09:32:06.563Z,99896.80
2018-11-06T09:34:35.033Z,99894.23
2018-11-06T09:37:03.470Z,99897.20
2018-11-06T09:39:31.916Z,99901.77
2018-11-06T09:42:00.383Z,99903.23
2018-11-06T09:44:28.818Z,99903.90
2018-11-06T09:46:58.256Z,99905.67
2018-11-06T09:49:26.652Z,99908.00
2018-11-06T09:51:55.152Z,99909.38
2018-11-06T09:54:23.551Z,99911.61
2018-11-06T09:56:52.079Z,99910.33
2018-11-06T09:59:20.624Z,99909.27
2018-11-06T10:01:49.087Z,99910.29
2018-11-06T10:04:17.613Z,99914.83
2018-11-06T10:06:46.210Z,99909.11
2018-11-06T10:09:14.601Z,99910.81
2018-11-06T10:11:43.807Z,99913.07
2018-11-06T10:14:12.292Z,99910.91
2018-11-06T10:16:40.775Z,99913.61
2018-11-06T10:19:09.194Z,99905.41
2018-11-06T10:21:37.599Z,99905.86
2018-11-06T10:24:06.435Z,99900.00
2018-11-06T10:26:35.016Z,99901.82
2018-11-06T10:29:03.438Z,99901.66
2018-11-06T10:31:31.874Z,99897.77
2018-11-06T10:34:00.329Z,99898.20
2018-11-06T10:36:28.765Z,99899.88
2018-11-06T10:38:57.257Z,99894.23
2018-11-06T10:41:25.642Z,99896.85
2018-11-06T10:43:54.949Z,99899.45
2018-11-06T10:46:23.439Z,99900.72
2018-11-06T10:48:52.153Z,99892.75
2018-11-06T10:51:20.768Z,99897.06
2018-11-06T10:53:49.360Z,99892.38
2018-11-06T10:56:17.844Z,99885.41
2018-11-06T10:58:46.321Z,99881.74
2018-11-06T11:01:19.908Z,99881.13
2018-11-06T11:03:53.667Z,99872.94
2018-11-06T11:06:22.149Z,99875.69
2018-11-06T11:08:50.903Z,99876.34
2018-11-06T11:11:19.345Z,99873.77
2018-11-06T11:13:48.099Z,99878.30
2018-11-06T11:16:16.590Z,99877.63
2018-11-06T11:18:45.235Z,99873.60
2018-11-06T11:21:13.843Z,99881.55
2018-11-06T11:23:42.714Z,99877.26
2018-11-06T11:26:11.271Z,99873.91
2018-11-06T11:28:39.771Z,99871.55
2018-11-06T11:31:08.306Z,99865.10
2018-11-06T11:33:36.766Z,99867.81
2018-11-06T11:36:05.249Z,99864.84
2018-11-06T11:38:33.714Z,99866.77
2018-11-06T11:41:02.241Z,99865.13
2018-11-06T11:43:30.775Z,99856.91
2018-11-06T11:45:59.335Z,99861.17
2018-11-06T11:48:28.263Z,99857.33
2018-11-06T11:50:56.740Z,99848.37
2018-11-06T11:53:25.155Z,99855.73
2018-11-06T11:55:53.670Z,99856.69
2018-11-06T11:58:22.138Z,99852.72
2018-11-06T12:00:50.601Z,99856.07
2018-11-06T12:03:19.618Z,99854.44
2018-11-06T12:05:48.130Z,99852.28
2018-11-06T12:08:16.638Z,99850.41
2018-11-06T12:10:45.275Z,99853.17
2018-11-06T12:13:14.208Z,99853.81
2018-11-06T12:15:42.589Z,99844.48
2018-11-06T12:18:11.035Z,99843.20
2018-11-06T12:20:39.408Z,99850.11
2018-11-06T12:23:07.815Z,99849.82
2018-11-06T12:25:36.553Z,99843.80
2018-11-06T12:28:05.657Z,99844.33
2018-11-06T12:30:34.126Z,99842.50
2018-11-06T12:33:02.596Z,99845.23
2018-11-06T12:35:31.037Z,99842.59
2018-11-06T12:38:00.054Z,99841.36
2018-11-06T12:40:28.498Z,99840.84
2018-11-06T12:42:57.013Z,99835.28
2018-11-06T12:45:26.007Z,99835.22
2018-11-06T12:47:54.505Z,99833.41
2018-11-06T12:50:23.166Z,99835.46
2018-11-06T12:52:51.581Z,99829.84
2018-11-06T12:55:20.158Z,99830.24
2018-11-06T12:57:48.592Z,99841.84
2018-11-06T13:00:19.223Z,99837.69
2018-11-06T13:02:47.718Z,99837.38
2018-11-06T13:05:16.260Z,99827.75
2018-11-06T13:07:45.460Z,99824.09
2018-11-06T13:10:14.791Z,99828.85
2018-11-06T13:12:43.780Z,99824.33
2018-11-06T13:15:12.618Z,99817.70
2018-11-06T13:17:41.970Z,99821.35
2018-11-06T13:20:13.021Z,99821.58
2018-11-06T13:22:43.158Z,99820.98
2018-11-06T13:25:12.442Z,99820.83
2018-11-06T13:27:41.900Z,99818.41
2018-11-06T13:30:13.771Z,99817.95
2018-11-06T13:32:42.946Z,99818.24
2018-11-06T13:35:11.800Z,99815.06
2018-11-06T13:37:40.317Z,99811.59
2018-11-06T13:40:11.037Z,99806.42
2018-11-06T13:42:39.998Z,99808.30
2018-11-06T13:45:11.513Z,99806.25
2018-11-06T13:47:39.836Z,99809.53
2018-11-06T13:50:08.902Z,99812.02
2018-11-06T13:52:37.635Z,99811.48
2018-11-06T13:55:07.581Z,99815.45
2018-11-06T13:57:36.795Z,99822.27
2018-11-06T14:00:09.544Z,99813.77
2018-11-06T14:02:38.178Z,99816.35
2018-11-06T14:05:06.844Z,99817.05
2018-11-06T14:07:35.633Z,99817.41
2018-11-06T14:10:04.272Z,99814.70
2018-11-06T14:12:32.903Z,99821.81
2018-11-06T14:15:01.654Z,99821.50
2018-11-06T14:17:30.153Z,99827.16
2018-11-06T14:19:59.341Z,99821.99
2018-11-06T14:22:27.993Z,99817.30
2018-11-06T14:24:56.495Z,99823.34
2018-11-06T14:27:25.047Z,99834.59
2018-11-06T14:29:53.607Z,99832.72
2018-11-06T14:32:21.990Z,99834.23
2018-11-06T14:34:50.930Z,99827.47
2018-11-06T14:37:19.410Z,99820.77
2018-11-06T14:39:47.929Z,99822.89
2018-11-06T14:42:16.348Z,99820.94
2018-11-06T14:44:44.883Z,99817.93
2018-11-06T14:47:13.353Z,99814.03
2018-11-06T14:49:42.419Z,99816.55
2018-11-06T14:52:10.871Z,99822.07
2018-11-06T14:54:40.283Z,99822.12
2018-11-06T14:57:08.724Z,99825.86
2018-11-06T14:59:37.243Z,99827.41
2018-11-06T15:02:06.215Z,99821.63
2018-11-06T15:04:34.706Z,99824.21
2018-11-06T15:07:03.263Z,99826.59
2018-11-06T15:09:31.739Z,99819.55
2018-11-06T15:12:00.312Z,99824.93
2018-11-06T15:14:28.746Z,99820.76
2018-11-06T15:16:57.212Z,99824.22
2018-11-06T15:19:25.622Z,99820.47
2018-11-06T15:21:54.029Z,99819.50
2018-11-06T15:24:22.468Z,99819.59
2018-11-06T15:26:50.877Z,99828.45
2018-11-06T15:29:19.274Z,99827.42
2018-11-06T15:31:47.674Z,99826.80
2018-11-06T15:34:16.046Z,99819.78
2018-11-06T15:36:44.507Z,99825.91
2018-11-06T15:39:13.432Z,99823.17
2018-11-06T15:41:42.383Z,99833.92
2018-11-06T15:44:11.006Z,99831.14
2018-11-06T15:46:39.434Z,99827.53
2018-11-06T15:49:08.026Z,99835.07
2018-11-06T15:51:36.389Z,99836.04
2018-11-06T15:54:04.777Z,99835.83
2018-11-06T15:56:33.199Z,99832.93
2018-11-06T15:59:01.555Z,99833.81
2018-11-06T16:01:29.958Z,99829.80
2018-11-06T16:03:58.392Z,99833.00
2018-11-06T16:06:26.794Z,99836.59
2018-11-06T16:08:56.043Z,99836.05
2018-11-06T16:11:24.592Z,99829.48
2018-11-06T16:13:53.015Z,99827.78
2018-11-06T16:16:21.406Z,99830.58
2018-11-06T16:18:49.783Z,99826.00
2018-11-06T16:21:18.285Z,99826.60
2018-11-06T16:23:46.726Z,99820.81
2018-11-06T16:26:15.731Z,99821.36
2018-11-06T16:28:44.198Z,99810.44
2018-11-06T16:31:12.572Z,99813.55
2018-11-06T16:33:41.111Z,99812.45
2018-11-06T16:36:09.495Z,99813.95
2018-11-06T16:38:37.973Z,99816.69
2018-11-06T16:41:06.937Z,99809.53
2018-11-06T16:43:35.861Z,99808.88
2018-11-06T16:46:05.203Z,99807.31
2018-11-06T16:48:33.859Z,99805.01
2018-11-06T16:51:02.269Z,99800.55
2018-11-06T16:53:30.705Z,99798.97
2018-11-06T16:55:59.178Z,99795.91
2018-11-06T16:58:27.573Z,99794.02
2018-11-06T17:00:56.129Z,99794.09
2018-11-06T17:03:24.564Z,99800.05
2018-11-06T17:05:53.050Z,99802.45
2018-11-06T17:08:21.459Z,99806.80
2018-11-06T17:10:49.911Z,99809.58
2018-11-06T17:13:18.408Z,99800.59
2018-11-06T17:15:46.818Z,99806.13
2018-11-06T17:18:15.304Z,99799.59
2018-11-06T17:20:43.859Z,99796.33
2018-11-06T17:23:12.428Z,99788.55
2018-11-06T17:25:42.284Z,99798.69
2018-11-06T17:28:11.470Z,99801.75
2018-11-06T17:30:40.979Z,99807.45
2018-11-06T17:33:09.385Z,99798.02
2018-11-06T17:35:38.245Z,99803.66
2018-11-06T17:38:07.133Z,99804.04
2018-11-06T17:40:36.323Z,99803.86
2018-11-06T17:43:04.896Z,99799.69
2018-11-06T17:45:33.481Z,99801.31
2018-11-06T17:48:01.979Z,99805.16
2018-11-06T17:50:30.394Z,99804.22
2018-11-06T17:52:58.821Z,99804.97
2018-11-06T17:55:27.276Z,99796.48
2018-11-06T17:57:55.811Z,99797.73
2018-11-06T18:00:24.631Z,99796.94
2018-11-06T18:02:53.113Z,99792.82
2018-11-06T18:05:23.175Z,99794.61
2018-11-06T18:07:51.639Z,99798.13
2018-11-06T18:10:20.785Z,99788.25
2018-11-06T18:12:49.421Z,99784.28
2018-11-06T18:15:19.158Z,99782.88
2018-11-06T18:17:47.908Z,99785.73
2018-11-06T18:20:16.552Z,99780.77
2018-11-06T18:22:45.633Z,99779.13
2018-11-06T18:25:14.635Z,99774.77
2018-11-06T18:27:43.078Z,99778.95
2018-11-06T18:30:14.079Z,99768.03
2018-11-06T18:32:43.091Z,99772.53
2018-11-06T18:35:12.858Z,99778.14
2018-11-06T18:37:41.635Z,99778.42
2018-11-06T18:40:13.211Z,99776.36
2018-11-06T18:42:42.071Z,99776.11
2018-11-06T18:45:10.594Z,99773.69
2018-11-06T18:47:39.250Z,99777.99
2018-11-06T18:50:10.858Z,99782.91
2018-11-06T18:52:40.485Z,99787.81
2018-11-06T18:55:12.707Z,99784.32
2018-11-06T18:57:42.233Z,99783.03
2018-11-06T19:00:14.687Z,99780.69
2018-11-06T19:02:44.275Z,99780.28
2018-11-06T19:05:12.672Z,99775.83
2018-11-06T19:07:41.089Z,99780.63
2018-11-06T19:10:10.845Z,99783.08
2018-11-06T19:12:39.329Z,99783.94
2018-11-06T19:15:11.428Z,99782.25
2018-11-06T19:17:40.078Z,99787.93
2018-11-06T19:20:09.386Z,99791.62
2018-11-06T19:22:38.375Z,99789.72
2018-11-06T19:25:07.457Z,99784.98
2018-11-06T19:27:36.084Z,99792.03
2018-11-06T19:30:05.918Z,99795.19
2018-11-06T19:32:41.969Z,99795.52
2018-11-06T19:35:11.021Z,99789.86
2018-11-06T19:40:45.224Z,99792.75
2018-11-06T19:43:14.564Z,99787.05
2018-11-06T19:45:55.120Z,99791.40
2018-11-06T19:48:35.710Z,99787.09
2018-11-06T19:51:16.521Z,99786.48
2018-11-06T19:53:58.734Z,99788.76
2018-11-06T19:56:42.707Z,99784.78
2018-11-06T19:59:26.710Z,99791.03
2018-11-06T20:02:07.378Z,99784.25
2018-11-06T20:04:50.476Z,99786.28
2018-11-06T20:07:34.032Z,99787.23
2018-11-06T20:10:06.139Z,99785.08
2018-11-06T20:12:49.130Z,99783.82
2018-11-06T20:15:29.380Z,99783.48
2018-11-06T20:18:09.803Z,99785.73
2018-11-06T20:20:54.022Z,99779.34
2018-11-06T20:23:36.447Z,99777.80
2018-11-06T20:26:15.742Z,99779.27
2018-11-06T20:28:54.926Z,99774.75
2018-11-06T20:31:34.421Z,99774.03
2018-11-06T20:34:15.982Z,99774.03
2018-11-06T20:36:56.396Z,99766.31
2018-11-06T20:39:24.948Z,99764.39
2018-11-06T20:41:58.981Z,99763.86
2018-11-06T20:44:32.474Z,99761.83
2018-11-06T20:47:08.494Z,99758.17
2018-11-06T20:49:37.471Z,99766.38
2018-11-06T20:52:06.052Z,99762.58
2018-11-06T20:54:35.372Z,99764.47
2018-11-06T20:57:04.875Z,99763.78
2018-11-06T20:59:33.342Z,99764.37
2018-11-06T21:02:01.727Z,99760.05
2018-11-06T21:04:30.201Z,99757.97
2018-11-06T21:06:58.814Z,99761.02
2018-11-06T21:09:27.279Z,99758.64
2018-11-06T21:11:56.200Z,99754.84
2018-11-06T21:14:25.379Z,99755.63
2018-11-06T21:16:53.942Z,99758.84
2018-11-06T21:19:22.519Z,99758.80
2018-11-06T21:21:51.337Z,99756.13
2018-11-06T21:24:20.095Z,99761.03
2018-11-06T21:26:50.911Z,99762.35
2018-11-06T21:29:20.208Z,99761.97
2018-11-06T21:31:49.176Z,99751.95
2018-11-06T21:34:17.978Z,99751.65
2018-11-06T21:36:46.627Z,99746.63
2018-11-06T21:39:16.493Z,99749.72
2018-11-06T21:41:45.473Z,99744.64
2018-11-06T21:44:14.547Z,99744.74
2018-11-06T21:46:43.221Z,99740.29
2018-11-06T21:49:13.579Z,99746.83
2018-11-06T21:51:42.226Z,99742.51
2018-11-06T21:54:10.791Z,99742.34
2018-11-06T21:56:42.706Z,99747.81
2018-11-06T21:59:11.176Z,99735.19
2018-11-06T22:01:40.151Z,99747.19
2018-11-06T22:04:09.173Z,99735.92
2018-11-06T22:06:37.877Z,99734.63
2018-11-06T22:09:08.074Z,99744.88
2018-11-06T22:11:36.988Z,99749.99
2018-11-06T22:14:05.924Z,99755.11
2018-11-06T22:16:34.741Z,99767.50
2018-11-06T22:19:14.395Z,99773.52
2018-11-06T22:21:43.284Z,99784.61
2018-11-06T22:24:12.552Z,99793.01
2018-11-06T22:26:41.466Z,99796.59
2018-11-06T22:29:10.200Z,99800.88
2018-11-06T22:31:39.242Z,99795.90
2018-11-06T22:34:07.757Z,99793.05
2018-11-06T22:36:36.455Z,99795.86
2018-11-06T22:39:07.145Z,99792.83
2018-11-06T22:41:38.506Z,99798.10
2018-11-06T22:44:07.304Z,99800.66
2018-11-06T22:46:36.156Z,99807.62
2018-11-06T22:49:05.025Z,99795.29
2018-11-06T22:51:33.940Z,99796.18
2018-11-06T22:54:02.563Z,99794.97
2018-11-06T22:56:31.768Z,99791.61
2018-11-06T22:59:01.026Z,99799.34
2018-11-06T23:01:40.583Z,99801.16
2018-11-06T23:04:09.255Z,99797.98
2018-11-06T23:06:37.808Z,99790.46
2018-11-06T23:09:09.861Z,99783.69
2018-11-06T23:11:38.693Z,99786.16
2018-11-06T23:14:07.410Z,99785.44
2018-11-06T23:16:38.223Z,99773.08
2018-11-06T23:19:06.633Z,99777.59
2018-11-06T23:21:35.456Z,99777.69
2018-11-06T23:24:04.157Z,99792.36
2018-11-06T23:26:32.783Z,99786.20
2018-11-06T23:29:01.271Z,99786.20
2018-11-06T23:31:29.914Z,99780.48
2018-11-06T23:33:58.256Z,99778.88
2018-11-06T23:36:26.636Z,99777.90
2018-11-06T23:38:55.056Z,99779.67
2018-11-06T23:41:23.453Z,99775.04
2018-11-06T23:43:51.835Z,99774.09
2018-11-06T23:46:20.179Z,99778.73
2018-11-06T23:48:49.322Z,99775.44
2018-11-06T23:51:17.742Z,99765.24
2018-11-06T23:53:46.247Z,99763.38
2018-11-06T23:56:14.683Z,99769.67
2018-11-06T23:58:43.145Z,99776.27
